Time,TemperatureF,DewpointF,PressureIn,WindDirection,WindDirectionDegrees,WindSpeedMPH,WindSpeedGustMPH,Humidity,HourlyPrecipIn,Conditions,Clouds,dailyrainin,SoftwareType,DateUTC
2017-11-18 00:03:00,60.1,58.3,30.06,SW,218,0.9,1.0,94,0.00,,,0.00,meteobridge,2017-11-18 05:03:00,
2017-11-18 00:08:00,59.9,58.1,30.05,SW,233,2.0,2.0,94,0.00,,,0.00,meteobridge,2017-11-18 05:08:00,
2017-11-18 00:13:00,59.7,57.9,30.05,WSW,248,2.0,3.0,94,0.00,,,0.00,meteobridge,2017-11-18 05:13:00,
2017-11-18 00:18:00,59.7,57.9,30.05,WSW,255,2.0,3.0,94,0.00,,,0.00,meteobridge,2017-11-18 05:18:00,
2017-11-18 00:23:00,59.7,57.9,30.05,WSW,252,2.0,3.0,94,0.00,,,0.00,meteobridge,2017-11-18 05:23:00,
2017-11-18 00:28:00,59.5,58.1,30.05,WSW,249,0.0,2.0,95,0.00,,,0.00,meteobridge,2017-11-18 05:28:00,
2017-11-18 00:33:00,59.5,58.1,30.04,WSW,252,0.0,2.0,95,0.00,,,0.00,meteobridge,2017-11-18 05:33:00,
2017-11-18 00:38:00,59.5,58.1,30.04,WSW,253,0.9,2.0,95,0.00,,,0.00,meteobridge,2017-11-18 05:38:00,
2017-11-18 00:42:00,59.5,58.1,30.04,WSW,250,0.0,1.0,95,0.00,,,0.00,meteobridge,2017-11-18 05:42:00,
2017-11-18 00:47:00,59.4,57.9,30.04,SW,233,0.0,1.0,95,0.00,,,0.00,meteobridge,2017-11-18 05:47:00,
2017-11-18 00:52:00,59.4,57.9,30.03,WSW,255,2.0,3.0,95,0.00,,,0.00,meteobridge,2017-11-18 05:52:00,
2017-11-18 01:05:00,59.4,57.9,30.03,WSW,252,0.0,0.0,95,0.00,,,0.00,meteobridge,2017-11-18 06:05:00,
2017-11-18 01:10:00,59.4,57.9,30.03,WSW,252,0.0,1.0,95,0.00,,,0.00,meteobridge,2017-11-18 06:10:00,
2017-11-18 01:15:00,59.4,57.9,30.03,West,265,2.0,3.0,95,0.00,,,0.00,meteobridge,2017-11-18 06:15:00,
2017-11-18 01:20:00,59.2,57.7,30.03,West,263,2.0,3.0,95,0.00,,,0.00,meteobridge,2017-11-18 06:20:00,
2017-11-18 01:25:00,59.2,57.7,30.03,West,267,2.0,3.0,95,0.00,,,0.00,meteobridge,2017-11-18 06:25:00,
2017-11-18 01:30:00,59.2,57.7,30.03,WSW,258,0.9,3.0,95,0.00,,,0.00,meteobridge,2017-11-18 06:30:00,
2017-11-18 01:35:00,59.2,57.7,30.03,WSW,256,0.9,3.0,95,0.00,,,0.00,meteobridge,2017-11-18 06:35:00,
2017-11-18 01:40:00,59.2,57.7,30.02,WSW,250,2.0,2.0,95,0.00,,,0.00,meteobridge,2017-11-18 06:40:00,
2017-11-18 01:45:00,59.2,57.7,30.02,West,259,0.9,3.0,95,0.00,,,0.00,meteobridge,2017-11-18 06:45:00,
2017-11-18 01:50:00,59.0,57.6,30.02,West,260,2.9,4.0,95,0.00,,,0.00,meteobridge,2017-11-18 06:50:00,
2017-11-18 01:55:00,59.0,57.6,30.02,WSW,250,0.9,3.0,95,0.00,,,0.00,meteobridge,2017-11-18 06:55:00,
2017-11-18 02:00:00,59.0,57.6,30.02,WSW,257,2.0,2.0,95,0.00,,,0.00,meteobridge,2017-11-18 07:00:00,
2017-11-18 02:05:00,58.8,57.4,30.02,WSW,243,0.0,1.0,95,0.00,,,0.00,meteobridge,2017-11-18 07:05:00,
2017-11-18 02:10:00,58.8,57.7,30.02,WSW,257,0.9,2.0,96,0.00,,,0.00,meteobridge,2017-11-18 07:10:00,
2017-11-18 02:15:00,58.8,57.7,30.02,West,268,0.9,2.0,96,0.00,,,0.00,meteobridge,2017-11-18 07:15:00,
2017-11-18 02:20:00,58.8,57.4,30.02,WSW,257,0.9,2.0,95,0.00,,,0.00,meteobridge,2017-11-18 07:20:00,
2017-11-18 02:25:00,58.6,57.6,30.02,WSW,254,0.9,2.0,96,0.00,,,0.00,meteobridge,2017-11-18 07:25:00,
2017-11-18 02:30:00,58.8,57.7,30.02,WSW,255,0.9,3.0,96,0.00,,,0.00,meteobridge,2017-11-18 07:30:00,
2017-11-18 02:35:00,58.8,57.7,30.02,West,271,2.0,4.0,96,0.00,,,0.00,meteobridge,2017-11-18 07:35:00,
2017-11-18 02:40:00,58.8,57.7,30.02,West,269,2.0,2.0,96,0.00,,,0.00,meteobridge,2017-11-18 07:40:00,
2017-11-18 02:45:00,58.8,57.7,30.02,West,259,0.9,3.0,96,0.00,,,0.00,meteobridge,2017-11-18 07:45:00,
2017-11-18 02:50:00,58.8,57.7,30.02,WSW,255,0.0,2.0,96,0.00,,,0.00,meteobridge,2017-11-18 07:50:00,
2017-11-18 02:55:00,58.8,57.7,30.02,WSW,258,0.0,2.0,96,0.00,,,0.00,meteobridge,2017-11-18 07:55:00,
2017-11-18 03:00:00,59.0,57.9,30.02,WSW,257,0.9,2.0,96,0.00,,,0.00,meteobridge,2017-11-18 08:00:00,
2017-11-18 03:05:00,59.2,58.1,30.02,West,281,2.0,3.0,96,0.00,,,0.00,meteobridge,2017-11-18 08:05:00,
2017-11-18 03:10:00,59.2,58.1,30.02,West,259,2.0,2.0,96,0.00,,,0.00,meteobridge,2017-11-18 08:10:00,
2017-11-18 03:15:00,59.2,58.1,30.02,West,267,0.9,2.0,96,0.00,,,0.00,meteobridge,2017-11-18 08:15:00,
2017-11-18 03:20:00,59.2,58.1,30.02,West,271,0.0,2.0,96,0.00,,,0.00,meteobridge,2017-11-18 08:20:00,
2017-11-18 03:25:00,59.2,58.1,30.02,West,271,0.0,2.0,96,0.00,,,0.00,meteobridge,2017-11-18 08:25:00,
2017-11-18 03:30:00,59.2,58.1,30.01,West,264,2.0,2.0,96,0.00,,,0.00,meteobridge,2017-11-18 08:30:00,
2017-11-18 03:35:00,59.2,58.1,30.01,West,264,0.0,2.0,96,0.00,,,0.00,meteobridge,2017-11-18 08:35:00,
2017-11-18 03:40:00,59.2,57.7,30.01,West,277,0.9,1.0,95,0.00,,,0.00,meteobridge,2017-11-18 08:40:00,
2017-11-18 03:45:00,59.2,58.1,30.01,WSW,254,0.0,1.0,96,0.00,,,0.00,meteobridge,2017-11-18 08:45:00,
2017-11-18 03:50:00,59.2,57.7,30.01,WSW,255,0.9,1.0,95,0.00,,,0.00,meteobridge,2017-11-18 08:50:00,
2017-11-18 03:55:00,59.2,57.7,30.01,West,266,0.9,2.0,95,0.00,,,0.00,meteobridge,2017-11-18 08:55:00,
2017-11-18 04:00:00,59.2,57.7,30.01,WSW,252,0.9,2.0,95,0.00,,,0.00,meteobridge,2017-11-18 09:00:00,
2017-11-18 04:05:00,59.0,57.6,30.01,WSW,250,0.9,2.0,95,0.00,,,0.00,meteobridge,2017-11-18 09:05:00,
2017-11-18 04:10:00,58.8,57.4,30.01,WSW,248,0.0,1.0,95,0.00,,,0.00,meteobridge,2017-11-18 09:10:00,
2017-11-18 04:15:00,58.8,57.4,30.01,WSW,249,0.0,1.0,95,0.00,,,0.00,meteobridge,2017-11-18 09:15:00,
2017-11-18 04:20:00,58.8,57.4,30.01,WSW,249,0.0,1.0,95,0.00,,,0.00,meteobridge,2017-11-18 09:20:00,
2017-11-18 04:25:00,58.8,57.7,30.01,WSW,249,0.9,1.0,96,0.00,,,0.00,meteobridge,2017-11-18 09:25:00,
2017-11-18 04:30:00,58.6,57.2,30.01,WSW,253,0.9,2.0,95,0.00,,,0.00,meteobridge,2017-11-18 09:30:00,
2017-11-18 04:35:00,58.6,57.6,30.01,WSW,255,2.0,2.0,96,0.00,,,0.00,meteobridge,2017-11-18 09:35:00,
2017-11-18 04:40:00,58.5,57.0,30.02,West,260,2.0,3.0,95,0.00,,,0.00,meteobridge,2017-11-18 09:40:00,
2017-11-18 04:45:00,58.5,57.4,30.01,WSW,250,0.0,2.0,96,0.00,,,0.00,meteobridge,2017-11-18 09:45:00,
2017-11-18 04:51:00,58.6,57.6,30.01,WSW,255,0.9,2.0,96,0.00,,,0.00,meteobridge,2017-11-18 09:51:00,
2017-11-18 04:56:00,58.5,57.4,30.01,West,259,0.0,2.0,96,0.00,,,0.00,meteobridge,2017-11-18 09:56:00,
2017-11-18 05:01:00,58.5,57.4,30.01,WSW,246,0.0,1.0,96,0.00,,,0.00,meteobridge,2017-11-18 10:01:00,
2017-11-18 05:06:00,58.5,57.4,30.01,West,275,0.9,1.0,96,0.00,,,0.00,meteobridge,2017-11-18 10:06:00,
2017-11-18 05:11:00,58.5,57.4,30.01,West,266,0.0,1.0,96,0.00,,,0.00,meteobridge,2017-11-18 10:11:00,
2017-11-18 05:16:00,58.5,57.4,30.02,West,266,0.9,2.0,96,0.00,,,0.00,meteobridge,2017-11-18 10:16:00,
2017-11-18 05:21:00,58.5,57.4,30.02,West,265,2.0,2.0,96,0.00,,,0.00,meteobridge,2017-11-18 10:21:00,
2017-11-18 05:26:00,58.5,57.4,30.01,West,271,0.0,0.0,96,0.00,,,0.00,meteobridge,2017-11-18 10:26:00,
2017-11-18 05:31:00,58.5,57.4,30.01,West,260,0.0,1.0,96,0.00,,,0.00,meteobridge,2017-11-18 10:31:00,
2017-11-18 05:36:00,58.5,57.4,30.01,WSW,253,0.0,1.0,96,0.00,,,0.00,meteobridge,2017-11-18 10:36:00,
2017-11-18 05:41:00,58.5,57.4,30.01,WSW,254,0.0,1.0,96,0.00,,,0.00,meteobridge,2017-11-18 10:41:00,
2017-11-18 05:46:00,58.5,57.4,30.01,WSW,253,0.0,1.0,96,0.00,,,0.00,meteobridge,2017-11-18 10:46:00,
2017-11-18 05:51:00,58.6,57.6,30.01,WSW,254,0.9,2.0,96,0.00,,,0.00,meteobridge,2017-11-18 10:51:00,
2017-11-18 05:56:00,58.5,57.0,30.01,WSW,246,0.0,0.0,95,0.00,,,0.00,meteobridge,2017-11-18 10:56:00,
2017-11-18 06:01:00,58.5,57.0,30.02,WSW,246,0.0,0.0,95,0.00,,,0.00,meteobridge,2017-11-18 11:01:00,
2017-11-18 06:06:00,58.3,56.8,30.02,WSW,249,0.9,1.0,95,0.00,,,0.00,meteobridge,2017-11-18 11:06:00,
2017-11-18 06:11:00,58.3,56.8,30.02,WSW,246,0.0,1.0,95,0.00,,,0.00,meteobridge,2017-11-18 11:11:00,
2017-11-18 06:16:00,58.3,57.2,30.02,WSW,246,0.0,1.0,96,0.00,,,0.00,meteobridge,2017-11-18 11:16:00,
2017-11-18 06:21:00,58.5,57.4,30.02,WSW,247,0.0,1.0,96,0.00,,,0.00,meteobridge,2017-11-18 11:21:00,
2017-11-18 06:26:00,58.5,57.4,30.03,WSW,247,0.0,1.0,96,0.00,,,0.00,meteobridge,2017-11-18 11:26:00,
2017-11-18 06:31:00,58.6,57.6,30.03,WSW,250,0.0,1.0,96,0.00,,,0.00,meteobridge,2017-11-18 11:31:00,
2017-11-18 06:36:00,58.6,57.6,30.03,WSW,254,2.0,2.0,96,0.00,,,0.00,meteobridge,2017-11-18 11:36:00,
2017-11-18 06:41:00,58.6,57.2,30.03,WSW,254,0.0,1.0,95,0.00,,,0.00,meteobridge,2017-11-18 11:41:00,
2017-11-18 06:46:00,58.6,57.2,30.03,WSW,254,0.0,1.0,95,0.00,,,0.00,meteobridge,2017-11-18 11:46:00,
2017-11-18 06:51:00,58.8,57.7,30.03,West,261,2.0,2.0,96,0.00,,,0.00,meteobridge,2017-11-18 11:51:00,
2017-11-18 06:56:00,58.8,57.7,30.03,West,272,0.9,2.0,96,0.00,,,0.00,meteobridge,2017-11-18 11:56:00,
2017-11-18 07:01:00,58.8,57.4,30.03,West,267,0.9,1.0,95,0.00,,,0.00,meteobridge,2017-11-18 12:01:00,
2017-11-18 07:02:00,58.8,57.4,30.03,West,262,2.0,2.0,95,0.00,,,0.00,meteobridge,2017-11-18 12:02:00,
2017-11-18 07:07:00,58.8,57.4,30.03,West,264,0.9,2.0,95,0.00,,,0.00,meteobridge,2017-11-18 12:07:00,
2017-11-18 07:12:00,59.0,57.6,30.03,West,265,0.9,2.0,95,0.00,,,0.00,meteobridge,2017-11-18 12:12:00,
2017-11-18 07:17:00,59.2,57.7,30.04,West,270,0.9,2.0,95,0.00,,,0.00,meteobridge,2017-11-18 12:17:00,
2017-11-18 07:22:00,59.4,57.9,30.04,West,269,0.9,1.0,95,0.00,,,0.00,meteobridge,2017-11-18 12:22:00,
2017-11-18 07:27:00,59.7,58.3,30.04,West,262,0.0,1.0,95,0.00,,,0.00,meteobridge,2017-11-18 12:27:00,
2017-11-18 07:32:00,59.9,58.5,30.04,West,262,0.0,1.0,95,0.00,,,0.00,meteobridge,2017-11-18 12:32:00,
2017-11-18 07:37:00,60.1,58.6,30.04,WSW,258,0.0,1.0,95,0.00,,,0.00,meteobridge,2017-11-18 12:37:00,
2017-11-18 07:43:00,60.4,58.6,30.04,WSW,244,0.0,1.0,94,0.00,,,0.00,meteobridge,2017-11-18 12:43:00,
2017-11-18 07:48:00,60.6,58.8,30.04,WSW,245,0.0,0.0,94,0.00,,,0.00,meteobridge,2017-11-18 12:48:00,
2017-11-18 07:53:00,61.0,59.2,30.04,WSW,245,0.0,0.0,94,0.00,,,0.00,meteobridge,2017-11-18 12:53:00,
2017-11-18 07:58:00,61.5,59.7,30.04,WSW,245,0.0,0.0,94,0.00,,,0.00,meteobridge,2017-11-18 12:58:00,
2017-11-18 08:03:00,61.9,59.9,30.04,WSW,245,0.0,0.0,93,0.00,,,0.00,meteobridge,2017-11-18 13:03:00,
2017-11-18 08:08:00,62.2,60.3,30.04,WSW,245,0.0,0.0,93,0.00,,,0.00,meteobridge,2017-11-18 13:08:00,
2017-11-18 08:13:00,62.6,60.6,30.04,WSW,245,0.0,1.0,93,0.00,,,0.00,meteobridge,2017-11-18 13:13:00,
2017-11-18 08:18:00,63.0,61.0,30.04,WSW,245,0.0,0.0,93,0.00,,,0.00,meteobridge,2017-11-18 13:18:00,
2017-11-18 08:23:00,63.9,62.1,30.04,WSW,245,0.0,0.0,94,0.00,,,0.00,meteobridge,2017-11-18 13:23:00,
2017-11-18 08:28:00,64.6,62.2,30.03,SW,226,0.0,0.0,92,0.00,,,0.00,meteobridge,2017-11-18 13:28:00,
2017-11-18 08:33:00,64.8,62.1,30.03,SW,226,0.0,0.0,91,0.00,,,0.00,meteobridge,2017-11-18 13:33:00,
2017-11-18 08:38:00,65.7,63.0,30.04,SW,226,0.0,0.0,91,0.00,,,0.00,meteobridge,2017-11-18 13:38:00,
2017-11-18 08:43:00,65.7,62.1,30.04,SW,226,0.0,1.0,88,0.00,,,0.00,meteobridge,2017-11-18 13:43:00,
2017-11-18 08:48:00,65.8,62.4,30.04,SW,226,0.0,0.0,89,0.00,,,0.00,meteobridge,2017-11-18 13:48:00,
2017-11-18 08:53:00,66.0,62.4,30.04,WNW,284,0.0,0.0,88,0.00,,,0.00,meteobridge,2017-11-18 13:53:00,
2017-11-18 08:58:00,66.2,62.2,30.04,WNW,290,0.0,1.0,87,0.00,,,0.00,meteobridge,2017-11-18 13:58:00,
2017-11-18 09:03:00,66.2,61.9,30.04,WNW,290,0.0,1.0,86,0.00,,,0.00,meteobridge,2017-11-18 14:03:00,
2017-11-18 09:08:00,66.0,61.3,30.04,NW,322,0.9,1.0,85,0.00,,,0.00,meteobridge,2017-11-18 14:08:00,
2017-11-18 09:13:00,65.8,61.2,30.04,NNW,327,0.9,1.0,85,0.00,,,0.00,meteobridge,2017-11-18 14:13:00,
2017-11-18 09:18:00,65.7,61.0,30.04,NNW,330,0.9,2.0,85,0.00,,,0.00,meteobridge,2017-11-18 14:18:00,
2017-11-18 09:23:00,65.8,61.5,30.04,NW,321,0.9,2.0,86,0.00,,,0.00,meteobridge,2017-11-18 14:23:00,
2017-11-18 09:28:00,66.0,61.3,30.04,NW,319,0.9,2.0,85,0.00,,,0.00,meteobridge,2017-11-18 14:28:00,
2017-11-18 09:33:00,66.4,62.1,30.04,NNW,336,0.9,1.0,86,0.00,,,0.00,meteobridge,2017-11-18 14:33:00,
2017-11-18 09:38:00,66.6,61.9,30.04,NW,325,0.9,2.0,85,0.00,,,0.00,meteobridge,2017-11-18 14:38:00,
2017-11-18 09:43:00,66.7,62.1,30.04,NNW,338,0.9,1.0,85,0.00,,,0.00,meteobridge,2017-11-18 14:43:00,
2017-11-18 09:48:00,66.9,62.2,30.04,North,10,0.9,1.0,85,0.00,,,0.00,meteobridge,2017-11-18 14:48:00,
2017-11-18 09:53:00,67.1,62.1,30.04,NW,323,0.0,1.0,84,0.00,,,0.00,meteobridge,2017-11-18 14:53:00,
2017-11-18 09:58:00,66.9,61.2,30.04,NNW,339,0.0,2.0,82,0.00,,,0.00,meteobridge,2017-11-18 14:58:00,
2017-11-18 10:03:00,67.3,61.0,30.04,North,359,0.9,2.0,80,0.00,,,0.00,meteobridge,2017-11-18 15:03:00,
2017-11-18 10:08:00,67.8,61.7,30.04,NNW,341,2.0,2.0,81,0.00,,,0.00,meteobridge,2017-11-18 15:08:00,